createdAt,value
2022-12-19T00:01:19.704Z,64.58
2022-12-19T00:03:48.940Z,64.36
2022-12-19T00:06:16.745Z,64.51
2022-12-19T00:08:45.774Z,64.32
2022-12-19T00:11:14.030Z,63.88
2022-12-19T00:13:41.454Z,63.98
2022-12-19T00:16:15.894Z,64.41
2022-12-19T00:18:46.747Z,64.24
2022-12-19T00:21:16.914Z,64.28
2022-12-19T00:23:43.750Z,64.57
2022-12-19T00:26:16.544Z,64.78
2022-12-19T00:28:46.311Z,64.54
2022-12-19T00:31:15.675Z,64.96
2022-12-19T00:33:43.667Z,64.56
2022-12-19T00:36:22.522Z,65.06
2022-12-19T00:38:51.191Z,65.05
2022-12-19T00:41:22.609Z,64.95
2022-12-19T00:43:55.991Z,65.04
2022-12-19T00:46:22.864Z,64.98
2022-12-19T00:48:49.328Z,64.85
2022-12-19T00:51:23.300Z,65.22
2022-12-19T00:53:51.161Z,64.97
2022-12-19T00:56:20.948Z,64.90
2022-12-19T00:58:47.907Z,64.86
2022-12-19T01:01:20.695Z,65.71
2022-12-19T01:04:18.580Z,64.94
2022-12-19T01:06:34.738Z,65.16
2022-12-19T01:09:01.413Z,64.64
2022-12-19T01:11:46.712Z,64.68
2022-12-19T01:14:20.711Z,64.93
2022-12-19T01:16:48.915Z,64.88
2022-12-19T01:19:15.581Z,64.50
2022-12-19T01:21:42.276Z,64.50
2022-12-19T01:24:10.352Z,64.53
2022-12-19T01:26:36.785Z,64.13
2022-12-19T01:29:04.532Z,64.48
2022-12-19T01:31:31.086Z,64.06
2022-12-19T01:33:59.535Z,64.04
2022-12-19T01:36:26.085Z,64.11
2022-12-19T01:38:56.054Z,64.47
2022-12-19T01:41:22.457Z,64.35
2022-12-19T01:43:55.073Z,64.65
2022-12-19T01:46:40.204Z,64.51
2022-12-19T01:49:13.590Z,64.33
2022-12-19T01:51:44.825Z,63.94
2022-12-19T01:54:15.705Z,64.66
2022-12-19T01:56:48.610Z,63.95
2022-12-19T01:59:21.267Z,64.54
2022-12-19T02:01:51.597Z,63.84
2022-12-19T02:04:20.327Z,64.33
2022-12-19T02:06:48.270Z,64.53
2022-12-19T02:09:14.790Z,63.91
2022-12-19T02:11:41.323Z,64.23
2022-12-19T02:14:07.715Z,63.82
2022-12-19T02:16:58.706Z,63.98
2022-12-19T02:19:56.126Z,63.92
2022-12-19T02:22:58.350Z,64.70
2022-12-19T02:25:48.672Z,64.72
2022-12-19T02:28:34.664Z,64.38
2022-12-19T02:31:27.459Z,64.69
2022-12-19T02:34:27.470Z,64.50
2022-12-19T02:37:05.738Z,64.82
2022-12-19T02:39:41.676Z,64.84
2022-12-19T02:42:12.858Z,64.79
2022-12-19T02:44:46.451Z,65.42
2022-12-19T02:47:14.805Z,65.01
2022-12-19T02:49:41.269Z,65.54
2022-12-19T02:52:13.396Z,65.48
2022-12-19T02:54:43.523Z,65.69
2022-12-19T02:57:36.304Z,66.08
2022-12-19T03:00:13.912Z,66.33
2022-12-19T03:03:06.587Z,66.98
2022-12-19T03:05:59.967Z,66.86
2022-12-19T03:08:37.119Z,67.00
2022-12-19T03:11:14.689Z,67.62
2022-12-19T03:13:50.953Z,67.76
2022-12-19T03:16:17.362Z,68.08
2022-12-19T03:18:44.284Z,68.58
2022-12-19T03:21:13.594Z,68.60
2022-12-19T03:23:40.605Z,68.33
2022-12-19T03:26:12.331Z,68.87
2022-12-19T03:28:53.871Z,69.30
2022-12-19T03:31:24.560Z,69.37
2022-12-19T03:33:56.707Z,70.29
2022-12-19T03:36:30.657Z,69.82
2022-12-19T03:38:59.805Z,69.96
2022-12-19T03:41:45.795Z,70.15
2022-12-19T03:44:14.789Z,70.50
2022-12-19T03:46:46.749Z,70.56
2022-12-19T03:49:13.608Z,70.92
2022-12-19T03:51:56.392Z,70.79
2022-12-19T03:54:29.518Z,70.97
2022-12-19T03:56:56.033Z,70.97
2022-12-19T03:59:35.822Z,71.02
2022-12-19T04:02:04.344Z,71.10
2022-12-19T04:04:34.835Z,71.37
2022-12-19T04:07:03.972Z,71.91
2022-12-19T04:09:32.029Z,71.57
2022-12-19T04:12:05.387Z,71.41
2022-12-19T04:14:34.967Z,71.46
2022-12-19T04:17:12.590Z,72.38
2022-12-19T04:19:47.907Z,72.52
2022-12-19T04:22:23.562Z,72.33
2022-12-19T04:24:52.584Z,72.94
2022-12-19T04:27:20.575Z,72.67
2022-12-19T04:29:48.379Z,73.13
2022-12-19T04:32:15.123Z,72.92
2022-12-19T04:34:42.979Z,72.73
2022-12-19T04:37:11.188Z,72.53
2022-12-19T04:39:37.763Z,72.86
2022-12-19T04:42:04.405Z,72.91
2022-12-19T04:44:31.007Z,72.84
2022-12-19T04:46:57.425Z,73.11
2022-12-19T04:49:23.886Z,73.27
2022-12-19T04:51:50.862Z,73.72
2022-12-19T04:54:17.313Z,74.09
2022-12-19T04:56:43.742Z,73.56
2022-12-19T04:59:10.470Z,74.22
2022-12-19T05:01:37.065Z,74.16
2022-12-19T05:04:04.824Z,73.97
2022-12-19T05:06:31.444Z,73.93
2022-12-19T05:08:57.856Z,73.55
2022-12-19T05:11:24.288Z,73.84
2022-12-19T05:13:50.748Z,74.79
2022-12-19T05:16:17.462Z,74.20
2022-12-19T05:18:44.436Z,74.28
2022-12-19T05:21:11.250Z,74.25
2022-12-19T05:23:38.186Z,74.46
2022-12-19T05:26:05.598Z,74.97
2022-12-19T05:28:32.690Z,74.66
2022-12-19T05:31:13.555Z,75.57
2022-12-19T05:33:41.143Z,75.88
2022-12-19T05:36:08.569Z,75.75
2022-12-19T05:38:35.496Z,76.69
2022-12-19T05:41:15.524Z,77.04
2022-12-19T05:43:42.758Z,76.70
2022-12-19T05:46:09.326Z,76.72
2022-12-19T05:48:36.317Z,77.08
2022-12-19T05:51:03.058Z,76.81
2022-12-19T05:53:29.602Z,76.44
2022-12-19T05:56:10.284Z,76.78
2022-12-19T05:58:38.826Z,77.04
2022-12-19T06:01:20.389Z,76.72
2022-12-19T06:03:47.245Z,76.79
2022-12-19T06:06:15.955Z,76.95
2022-12-19T06:08:42.953Z,76.66
2022-12-19T06:11:11.152Z,76.70
2022-12-19T06:13:38.498Z,76.93
2022-12-19T06:16:12.812Z,77.40
2022-12-19T06:18:44.551Z,77.00
2022-12-19T06:21:29.631Z,78.02
2022-12-19T06:23:56.447Z,76.80
2022-12-19T06:26:23.461Z,76.94
2022-12-19T06:28:51.881Z,77.21
2022-12-19T06:31:20.200Z,77.41
2022-12-19T06:33:46.654Z,77.46
2022-12-19T06:36:20.221Z,77.74
2022-12-19T06:38:47.443Z,77.32
2022-12-19T06:41:33.912Z,77.17
2022-12-19T06:44:01.671Z,76.55
2022-12-19T06:46:28.409Z,76.42
2022-12-19T06:48:54.787Z,77.18
2022-12-19T06:51:21.613Z,77.04
2022-12-19T06:53:48.185Z,77.10
2022-12-19T06:56:16.040Z,77.03
2022-12-19T06:58:42.806Z,77.20
2022-12-19T07:01:19.900Z,77.20
2022-12-19T07:03:48.614Z,77.58
2022-12-19T07:06:15.516Z,76.89
2022-12-19T07:08:41.973Z,77.79
2022-12-19T07:11:08.391Z,77.41
2022-12-19T07:13:34.845Z,77.58
2022-12-19T07:16:04.470Z,78.08
2022-12-19T07:18:34.453Z,77.52
2022-12-19T07:21:01.781Z,77.49
2022-12-19T07:23:28.969Z,78.19
2022-12-19T07:25:55.513Z,77.53
2022-12-19T07:28:21.949Z,77.99
2022-12-19T07:30:48.376Z,77.65
2022-12-19T07:33:21.029Z,78.54
2022-12-19T07:35:48.213Z,78.27
2022-12-19T07:38:14.702Z,78.24
2022-12-19T07:40:41.224Z,78.42
2022-12-19T07:43:07.618Z,78.20
2022-12-19T07:45:37.027Z,78.56
2022-12-19T07:48:05.108Z,78.63
2022-12-19T07:50:31.976Z,78.60
2022-12-19T07:52:58.975Z,78.55
2022-12-19T07:55:26.345Z,78.77
2022-12-19T07:57:53.690Z,78.96
2022-12-19T08:00:20.466Z,78.96
2022-12-19T08:02:47.057Z,79.31
2022-12-19T08:05:13.550Z,79.69
2022-12-19T08:07:40.769Z,80.00
2022-12-19T08:10:08.173Z,79.95
2022-12-19T08:12:34.601Z,80.57
2022-12-19T08:15:01.025Z,80.13
2022-12-19T08:17:27.455Z,80.86
2022-12-19T08:19:53.924Z,80.85
2022-12-19T08:22:20.307Z,81.04
2022-12-19T08:24:46.815Z,81.38
2022-12-19T08:27:16.784Z,81.86
2022-12-19T08:29:43.184Z,81.87
2022-12-19T08:32:09.601Z,81.59
2022-12-19T08:34:36.083Z,81.94
2022-12-19T08:37:02.485Z,81.83
2022-12-19T08:39:28.859Z,82.06
2022-12-19T08:41:55.304Z,82.56
2022-12-19T08:44:30.595Z,82.94
2022-12-19T08:46:57.006Z,82.45
2022-12-19T08:49:23.515Z,82.77
2022-12-19T08:51:49.970Z,82.57
2022-12-19T08:54:16.464Z,82.29
2022-12-19T08:56:46.379Z,82.28
2022-12-19T08:59:20.763Z,83.16
2022-12-19T09:01:57.279Z,83.12
2022-12-19T09:05:59.779Z,83.39
2022-12-19T09:07:10.424Z,83.11
2022-12-19T09:09:36.803Z,83.21
2022-12-19T09:12:03.362Z,83.68
2022-12-19T09:14:33.975Z,83.65
2022-12-19T09:17:00.997Z,83.60
2022-12-19T09:19:30.456Z,83.44
2022-12-19T09:21:57.018Z,83.36
2022-12-19T09:24:23.478Z,83.42
2022-12-19T09:26:49.882Z,83.67
2022-12-19T09:29:19.806Z,84.37
2022-12-19T09:31:51.286Z,84.32
2022-12-19T09:34:37.986Z,84.65
2022-12-19T09:37:10.485Z,85.19
2022-12-19T09:39:47.451Z,84.95
2022-12-19T09:42:42.925Z,85.53
2022-12-19T09:45:31.417Z,85.75
2022-12-19T09:48:00.615Z,85.01
2022-12-19T09:50:36.205Z,85.64
2022-12-19T09:53:10.352Z,85.43
2022-12-19T09:55:41.197Z,85.79
2022-12-19T09:58:30.696Z,86.36
2022-12-19T10:01:02.105Z,85.98
2022-12-19T10:03:45.241Z,86.50
2022-12-19T10:07:16.201Z,86.06
2022-12-19T10:12:20.712Z,86.34
2022-12-19T10:12:47.834Z,86.07
2022-12-19T10:15:29.585Z,86.32
2022-12-19T10:17:58.868Z,86.65
2022-12-19T10:21:09.538Z,87.47
2022-12-19T10:23:58.889Z,86.96
2022-12-19T10:26:54.202Z,87.13
2022-12-19T10:29:23.293Z,86.38
2022-12-19T10:32:06.635Z,87.77
2022-12-19T10:34:39.829Z,86.88
2022-12-19T10:37:43.850Z,87.45
2022-12-19T10:40:27.824Z,87.34
2022-12-19T10:43:30.687Z,87.68
2022-12-19T10:46:10.892Z,87.12
2022-12-19T10:48:37.340Z,86.86
2022-12-19T10:51:06.899Z,87.39
2022-12-19T10:53:33.619Z,87.26
2022-12-19T10:56:02.743Z,87.31
2022-12-19T10:58:37.467Z,87.57
2022-12-19T11:01:24.902Z,86.53
2022-12-19T11:04:11.700Z,87.57
2022-12-19T11:06:38.110Z,86.71
2022-12-19T11:09:21.365Z,87.80
2022-12-19T11:15:49.500Z,87.22
2022-12-19T11:18:34.029Z,87.85
2022-12-19T11:29:15.318Z,87.13
2022-12-19T11:29:26.119Z,87.42
2022-12-19T11:29:39.897Z,87.19
2022-12-19T11:30:43.172Z,88.06
2022-12-19T11:32:44.300Z,87.73
2022-12-19T11:35:36.797Z,88.59
2022-12-19T11:38:06.656Z,88.55
2022-12-19T11:40:46.545Z,88.75
2022-12-19T11:43:46.119Z,89.39
2022-12-19T11:46:25.329Z,89.66
2022-12-19T11:49:08.892Z,90.43
2022-12-19T11:52:03.002Z,90.23
2022-12-19T11:55:02.047Z,91.20
2022-12-19T11:57:28.654Z,90.74
2022-12-19T11:59:59.892Z,91.27
2022-12-19T12:02:49.373Z,91.80
2022-12-19T12:05:30.557Z,92.05
2022-12-19T12:09:40.235Z,92.49
2022-12-19T12:18:43.247Z,92.34
2022-12-19T12:25:01.467Z,92.54
2022-12-19T12:30:57.192Z,93.82
2022-12-19T12:31:09.622Z,92.87
2022-12-19T12:31:42.624Z,92.83
2022-12-19T12:31:43.408Z,93.66
2022-12-19T12:31:55.330Z,93.17
2022-12-19T12:35:51.344Z,93.04
2022-12-19T12:37:51.145Z,92.68
2022-12-19T12:39:00.949Z,92.87
2022-12-19T12:42:03.912Z,93.19
2022-12-19T12:44:44.833Z,93.21
2022-12-19T12:47:21.708Z,93.14
2022-12-19T12:50:04.119Z,93.66
2022-12-19T12:52:42.684Z,93.13
2022-12-19T12:55:31.685Z,93.65
2022-12-19T12:57:59.146Z,93.03
2022-12-19T13:00:27.159Z,93.17
2022-12-19T13:03:18.861Z,93.78
2022-12-19T13:06:03.858Z,93.92
2022-12-19T13:08:48.046Z,93.77
2022-12-19T13:11:38.961Z,93.50
2022-12-19T13:14:26.552Z,93.27
2022-12-19T13:16:54.034Z,93.46
2022-12-19T13:19:33.173Z,93.29
2022-12-19T13:22:07.290Z,93.63
2022-12-19T13:24:42.851Z,94.27
2022-12-19T13:27:18.405Z,93.55
2022-12-19T13:30:00.092Z,93.84
2022-12-19T13:32:33.566Z,93.93
2022-12-19T13:35:20.585Z,93.39
2022-12-19T13:39:59.971Z,94.09
2022-12-19T13:41:25.668Z,93.64
2022-12-19T13:43:59.350Z,93.93
2022-12-19T13:46:42.501Z,94.22
2022-12-19T13:49:19.817Z,93.96
2022-12-19T13:51:50.255Z,93.88
2022-12-19T13:54:41.522Z,94.56
2022-12-19T13:57:30.063Z,94.42
2022-12-19T14:00:03.880Z,93.96
2022-12-19T14:02:44.384Z,93.81
2022-12-19T14:06:17.158Z,94.59
2022-12-19T14:08:28.337Z,93.79
2022-12-19T14:11:37.602Z,93.36
2022-12-19T14:14:16.518Z,94.11
2022-12-19T14:16:46.622Z,93.31
2022-12-19T14:19:24.982Z,94.28
2022-12-19T14:22:09.532Z,93.73
2022-12-19T14:24:39.591Z,93.26
2022-12-19T14:28:19.380Z,94.30
2022-12-19T14:30:27.679Z,93.45
2022-12-19T14:33:39.227Z,93.44
2022-12-19T14:36:06.712Z,93.99
2022-12-19T14:39:20.362Z,93.66
2022-12-19T14:41:48.101Z,94.02
2022-12-19T14:53:08.677Z,94.04
2022-12-19T14:54:07.010Z,93.86
2022-12-19T14:54:10.121Z,94.09
2022-12-19T14:54:20.955Z,94.02
2022-12-19T14:56:13.643Z,94.14
2022-12-19T14:58:53.924Z,94.39
2022-12-19T15:01:30.808Z,93.85
2022-12-19T15:04:47.892Z,94.87
2022-12-19T15:07:06.620Z,94.02
2022-12-19T15:10:59.327Z,94.26
2022-12-19T15:14:52.404Z,95.28
2022-12-19T15:16:24.452Z,94.44
2022-12-19T15:18:54.147Z,94.45
2022-12-19T15:21:20.598Z,94.61
2022-12-19T15:23:47.003Z,94.29
2022-12-19T15:26:34.850Z,94.98
2022-12-19T15:29:01.946Z,94.13
2022-12-19T15:31:42.732Z,94.17
2022-12-19T15:34:40.086Z,94.48
2022-12-19T15:37:13.104Z,93.61
2022-12-19T15:39:40.466Z,93.75
2022-12-19T15:42:17.894Z,94.27
2022-12-19T15:44:46.203Z,94.32
2022-12-19T15:47:18.202Z,94.17
2022-12-19T15:49:44.765Z,93.95
2022-12-19T15:52:17.185Z,94.47
2022-12-19T15:54:48.689Z,94.69
2022-12-19T15:57:35.196Z,95.25
2022-12-19T16:00:07.484Z,94.45
2022-12-19T16:05:22.989Z,94.49
2022-12-19T16:07:49.811Z,94.59
2022-12-19T16:10:17.502Z,94.30
2022-12-19T16:12:48.258Z,95.00
2022-12-19T16:15:24.825Z,94.79
2022-12-19T16:17:51.597Z,94.32
2022-12-19T16:20:21.778Z,94.86
2022-12-19T16:22:48.495Z,94.77
2022-12-19T16:25:16.068Z,94.68
2022-12-19T16:27:43.829Z,94.77
2022-12-19T16:30:20.218Z,95.16
2022-12-19T16:32:47.923Z,94.97
2022-12-19T16:35:34.410Z,95.00
2022-12-19T16:38:03.954Z,94.77
2022-12-19T16:40:30.508Z,94.71
2022-12-19T16:43:05.106Z,95.22
2022-12-19T16:45:33.916Z,95.21
2022-12-19T16:48:00.488Z,95.31
2022-12-19T16:50:29.565Z,95.11
2022-12-19T16:52:56.379Z,95.20
2022-12-19T16:55:25.865Z,95.09
2022-12-19T16:57:55.405Z,95.45
2022-12-19T17:00:23.365Z,94.64
2022-12-19T17:02:51.856Z,94.54
2022-12-19T17:05:29.401Z,94.66
2022-12-19T17:07:56.561Z,94.38
2022-12-19T17:10:30.859Z,94.68
2022-12-19T17:12:59.668Z,94.09
2022-12-19T17:15:32.193Z,93.93
2022-12-19T17:18:01.303Z,93.90
2022-12-19T17:20:32.200Z,93.98
2022-12-19T17:22:58.666Z,94.06
2022-12-19T17:25:27.108Z,93.93
2022-12-19T17:27:55.340Z,93.99
2022-12-19T17:30:22.008Z,93.78
2022-12-19T17:32:52.816Z,93.87
2022-12-19T17:35:27.863Z,93.94
2022-12-19T17:37:56.533Z,93.51
2022-12-19T17:40:26.452Z,93.53
2022-12-19T17:42:53.477Z,93.70
2022-12-19T17:45:21.606Z,93.43
2022-12-19T17:47:49.105Z,93.44
2022-12-19T17:50:29.973Z,94.07
2022-12-19T17:52:56.975Z,93.22
2022-12-19T17:55:28.333Z,93.13
2022-12-19T17:57:55.414Z,93.02
2022-12-19T18:00:30.319Z,92.84
2022-12-19T18:03:01.645Z,92.83
2022-12-19T18:05:31.745Z,93.20
2022-12-19T18:07:58.230Z,92.99
2022-12-19T18:10:27.738Z,93.06
2022-12-19T18:12:54.534Z,92.64
2022-12-19T18:15:22.500Z,92.75
2022-12-19T18:17:50.336Z,92.47
2022-12-19T18:20:32.772Z,92.83
2022-12-19T18:23:03.139Z,92.03
2022-12-19T18:25:31.153Z,92.60
2022-12-19T18:27:58.437Z,91.59
2022-12-19T18:30:25.668Z,91.64
2022-12-19T18:33:01.018Z,92.01
2022-12-19T18:35:40.027Z,92.18
2022-12-19T18:38:15.542Z,92.03
2022-12-19T18:40:42.274Z,91.71
2022-12-19T18:43:14.501Z,92.06
2022-12-19T18:45:50.566Z,91.98
2022-12-19T18:48:26.809Z,92.20
2022-12-19T18:50:53.849Z,91.64
2022-12-19T18:53:23.219Z,91.47
2022-12-19T18:55:51.544Z,91.08
2022-12-19T18:58:19.054Z,91.12
2022-12-19T19:00:49.565Z,91.27
2022-12-19T19:03:21.880Z,91.08
2022-12-19T19:05:48.794Z,90.67
2022-12-19T19:08:26.978Z,91.19
2022-12-19T19:10:55.541Z,90.35
2022-12-19T19:13:24.144Z,90.44
2022-12-19T19:15:58.987Z,90.28
2022-12-19T19:18:36.919Z,89.97
2022-12-19T19:21:05.090Z,89.89
2022-12-19T19:23:38.078Z,89.81
2022-12-19T19:26:05.748Z,89.57
2022-12-19T19:28:32.216Z,89.45
2022-12-19T19:31:00.591Z,89.81
2022-12-19T19:33:32.582Z,90.22
2022-12-19T19:36:09.424Z,89.94
2022-12-19T19:38:38.522Z,89.82
2022-12-19T19:41:05.149Z,90.27
2022-12-19T19:43:35.607Z,90.35
2022-12-19T19:46:02.653Z,90.67
2022-12-19T19:48:29.292Z,90.46
2022-12-19T19:50:55.790Z,90.07
2022-12-19T19:53:22.263Z,89.83
2022-12-19T19:55:56.686Z,90.36
2022-12-19T19:58:23.600Z,89.00
2022-12-19T20:00:50.272Z,89.08
2022-12-19T20:03:22.246Z,88.32
2022-12-19T20:05:49.959Z,88.19
2022-12-19T20:08:16.777Z,88.13
2022-12-19T20:10:43.157Z,87.37
2022-12-19T20:13:11.262Z,87.24
2022-12-19T20:15:37.851Z,86.73
2022-12-19T20:18:04.341Z,86.76
2022-12-19T20:20:33.105Z,87.02
2022-12-19T20:22:59.644Z,86.33
2022-12-19T20:25:26.075Z,86.29
2022-12-19T20:27:52.476Z,86.15
2022-12-19T20:30:19.145Z,85.81
2022-12-19T20:32:45.785Z,85.93
2022-12-19T20:35:14.826Z,85.54
2022-12-19T20:37:41.967Z,85.36
2022-12-19T20:40:09.315Z,85.45
2022-12-19T20:42:35.773Z,85.37
2022-12-19T20:45:02.277Z,85.55
2022-12-19T20:47:28.684Z,85.14
2022-12-19T20:49:55.102Z,85.15
2022-12-19T20:52:21.557Z,84.79
2022-12-19T20:54:47.990Z,84.48
2022-12-19T20:57:14.537Z,84.30
2022-12-19T20:59:40.923Z,84.46
2022-12-19T21:02:07.475Z,84.14
2022-12-19T21:04:34.210Z,83.45
2022-12-19T21:07:00.906Z,83.73
2022-12-19T21:09:27.350Z,83.33
2022-12-19T21:11:53.895Z,83.17
2022-12-19T21:14:20.337Z,82.98
2022-12-19T21:16:46.823Z,83.07
2022-12-19T21:19:13.274Z,82.66
2022-12-19T21:21:39.710Z,82.42
2022-12-19T21:24:06.304Z,82.61
2022-12-19T21:26:32.833Z,82.42
2022-12-19T21:28:59.546Z,82.02
2022-12-19T21:31:28.600Z,82.33
2022-12-19T21:34:01.258Z,82.79
2022-12-19T21:36:28.827Z,82.61
2022-12-19T21:38:57.537Z,82.25
2022-12-19T21:41:25.371Z,82.23
2022-12-19T21:43:54.265Z,82.17
2022-12-19T21:46:23.927Z,82.04
2022-12-19T21:48:52.869Z,81.76
2022-12-19T21:51:21.312Z,81.66
2022-12-19T21:53:52.414Z,81.73
2022-12-19T21:56:34.354Z,81.83
2022-12-19T21:59:04.404Z,81.47
2022-12-19T22:01:31.288Z,81.05
2022-12-19T22:03:59.901Z,81.13
2022-12-19T22:06:29.784Z,80.95
2022-12-19T22:08:56.665Z,80.84
2022-12-19T22:11:23.829Z,80.58
2022-12-19T22:13:51.336Z,80.85
2022-12-19T22:16:18.261Z,80.82
2022-12-19T22:18:45.150Z,80.83
2022-12-19T22:21:14.004Z,80.78
2022-12-19T22:23:41.016Z,80.61
2022-12-19T22:26:11.701Z,80.61
2022-12-19T22:28:40.681Z,80.53
2022-12-19T22:31:34.328Z,80.60
2022-12-19T22:34:16.715Z,80.53
2022-12-19T22:36:43.546Z,80.02
2022-12-19T22:39:13.771Z,79.85
2022-12-19T22:41:40.336Z,80.21
2022-12-19T22:44:07.773Z,79.65
2022-12-19T22:46:36.352Z,79.50
2022-12-19T22:49:05.099Z,79.79
2022-12-19T22:51:34.065Z,79.70
2022-12-19T22:54:01.389Z,79.58
2022-12-19T22:56:30.126Z,79.33
2022-12-19T22:59:00.223Z,79.06
2022-12-19T23:01:32.193Z,79.23
2022-12-19T23:04:03.153Z,79.50
2022-12-19T23:06:31.703Z,79.69
2022-12-19T23:08:58.496Z,79.44
2022-12-19T23:11:29.857Z,80.22
2022-12-19T23:13:56.595Z,79.73
2022-12-19T23:16:23.311Z,79.73
2022-12-19T23:18:49.795Z,79.76
2022-12-19T23:21:19.196Z,79.23
2022-12-19T23:23:47.052Z,79.35
2022-12-19T23:26:16.824Z,79.35
2022-12-19T23:28:49.342Z,79.24
2022-12-19T23:31:16.030Z,79.56
2022-12-19T23:33:42.444Z,79.42
2022-12-19T23:36:10.207Z,79.25
2022-12-19T23:38:36.883Z,79.54
2022-12-19T23:41:05.734Z,79.30
2022-12-19T23:43:33.527Z,78.83
2022-12-19T23:46:00.227Z,78.80
2022-12-19T23:48:28.371Z,78.84
2022-12-19T23:51:02.935Z,79.25
2022-12-19T23:53:30.154Z,78.81
2022-12-19T23:55:56.684Z,79.00
2022-12-19T23:58:24.938Z,79.00
